createdAt,value
2016-08-24T00:03:05.439Z,22.43
2016-08-24T00:08:03.096Z,22.48
2016-08-24T00:13:00.855Z,22.53
2016-08-24T00:17:58.731Z,22.45
2016-08-24T00:22:56.622Z,22.50
2016-08-24T00:27:54.370Z,22.39
2016-08-24T00:32:52.138Z,22.33
2016-08-24T00:37:49.956Z,22.23
2016-08-24T00:42:47.705Z,22.29
2016-08-24T00:47:45.409Z,22.25
2016-08-24T00:52:43.152Z,22.26
2016-08-24T00:57:41.060Z,22.14
2016-08-24T01:02:38.795Z,22.13
2016-08-24T01:07:36.547Z,22.13
2016-08-24T01:12:34.377Z,22.14
2016-08-24T01:17:32.448Z,22.17
2016-08-24T01:22:30.298Z,22.23
2016-08-24T01:27:27.970Z,22.26
2016-08-24T01:32:25.645Z,22.10
2016-08-24T01:37:23.569Z,22.20
2016-08-24T01:42:21.547Z,22.22
2016-08-24T01:47:19.360Z,22.11
2016-08-24T01:52:17.250Z,22.13
2016-08-24T01:57:15.113Z,22.15
2016-08-24T02:02:12.981Z,22.18
2016-08-24T02:07:10.854Z,22.10
2016-08-24T02:12:08.612Z,22.04
2016-08-24T02:17:06.250Z,21.99
2016-08-24T02:22:04.029Z,22.06
2016-08-24T02:27:01.814Z,22.02
2016-08-24T02:31:59.550Z,21.99
2016-08-24T02:36:57.286Z,21.96
2016-08-24T02:41:55.084Z,21.95
2016-08-24T02:46:53.069Z,21.89
2016-08-24T02:51:50.850Z,21.99
2016-08-24T02:56:48.555Z,21.98
2016-08-24T03:01:46.435Z,21.95
2016-08-24T03:06:44.259Z,21.82
2016-08-24T03:11:42.110Z,21.83
2016-08-24T03:16:39.845Z,21.77
2016-08-24T03:21:37.721Z,21.75
2016-08-24T03:26:35.637Z,21.77
2016-08-24T03:31:33.536Z,21.70
2016-08-24T03:36:31.400Z,21.69
2016-08-24T03:41:29.322Z,21.72
2016-08-24T03:46:27.165Z,21.72
2016-08-24T03:51:25.081Z,21.66
2016-08-24T03:56:23.044Z,21.70
2016-08-24T04:01:20.749Z,21.69
2016-08-24T04:06:18.541Z,21.66
2016-08-24T04:11:16.544Z,21.73
2016-08-24T04:16:14.150Z,21.76
2016-08-24T04:21:12.049Z,21.66
2016-08-24T04:26:09.901Z,21.72
2016-08-24T04:31:07.804Z,21.66
2016-08-24T04:36:05.716Z,21.54
2016-08-24T04:41:03.615Z,21.51
2016-08-24T04:46:01.482Z,21.66
2016-08-24T04:50:59.358Z,21.64
2016-08-24T04:55:57.226Z,21.66
2016-08-24T05:00:55.251Z,21.66
2016-08-24T05:05:53.311Z,21.72
2016-08-24T05:10:51.156Z,21.70
2016-08-24T05:15:49.022Z,21.66
2016-08-24T05:20:47.052Z,21.73
2016-08-24T05:25:44.891Z,21.67
2016-08-24T05:30:42.869Z,21.70
2016-08-24T05:35:40.688Z,21.80
2016-08-24T05:40:38.756Z,21.89
2016-08-24T05:45:36.668Z,21.85
2016-08-24T05:50:34.496Z,21.98
2016-08-24T05:55:32.458Z,21.93
2016-08-24T06:00:30.386Z,22.13
2016-08-24T06:05:28.344Z,22.17
2016-08-24T06:10:26.531Z,22.33
2016-08-24T06:15:24.361Z,22.47
2016-08-24T06:20:22.208Z,22.80
2016-08-24T06:25:21.163Z,23.15
2016-08-24T06:30:18.779Z,23.17
2016-08-24T06:35:16.637Z,23.24
2016-08-24T06:40:14.562Z,23.21
2016-08-24T06:45:12.509Z,23.25
2016-08-24T06:50:10.345Z,23.18
2016-08-24T06:55:08.126Z,23.20
2016-08-24T07:00:05.831Z,23.12
2016-08-24T07:05:03.736Z,23.17
2016-08-24T07:10:01.567Z,23.48
2016-08-24T07:14:59.349Z,23.40
2016-08-24T07:19:57.126Z,23.21
2016-08-24T07:24:54.984Z,23.15
2016-08-24T07:29:53.219Z,23.20
2016-08-24T07:34:50.926Z,23.21
2016-08-24T07:39:48.740Z,23.36
2016-08-24T07:44:46.791Z,23.37
2016-08-24T07:49:44.510Z,23.56
2016-08-24T07:54:42.503Z,23.98
2016-08-24T07:59:40.566Z,24.43
2016-08-24T08:04:38.953Z,24.60
2016-08-24T08:09:36.954Z,24.86
2016-08-24T08:14:35.088Z,25.44
2016-08-24T08:19:33.192Z,25.78
2016-08-24T08:24:31.553Z,25.87
2016-08-24T08:29:29.527Z,25.91
2016-08-24T08:34:27.523Z,26.05
2016-08-24T08:39:25.458Z,26.21
2016-08-24T08:44:23.391Z,26.34
2016-08-24T08:49:21.263Z,26.33
2016-08-24T08:54:19.209Z,26.16
2016-08-24T08:59:17.046Z,26.10
2016-08-24T09:04:14.946Z,26.09
2016-08-24T09:09:12.655Z,25.99
2016-08-24T09:14:10.361Z,25.95
2016-08-24T09:19:08.231Z,25.83
2016-08-24T09:24:05.867Z,25.81
2016-08-24T09:29:03.601Z,25.78
2016-08-24T09:34:01.332Z,25.66
2016-08-24T09:38:59.004Z,25.73
2016-08-24T09:43:56.773Z,25.68
2016-08-24T09:48:54.488Z,25.50
2016-08-24T09:53:52.263Z,25.48
2016-08-24T09:58:50.174Z,25.46
2016-08-24T10:03:48.007Z,25.33
2016-08-24T10:08:45.799Z,25.31
2016-08-24T10:13:43.588Z,25.36
2016-08-24T10:18:41.573Z,25.41
2016-08-24T10:23:39.458Z,25.26
2016-08-24T10:28:37.442Z,25.31
2016-08-24T10:33:35.356Z,25.32
2016-08-24T10:38:33.254Z,25.33
2016-08-24T10:43:31.164Z,25.31
2016-08-24T10:48:29.131Z,25.26
2016-08-24T10:53:26.918Z,25.25
2016-08-24T10:58:24.913Z,25.31
2016-08-24T11:03:22.908Z,25.38
2016-08-24T11:08:20.723Z,25.33
2016-08-24T11:13:18.572Z,25.26
2016-08-24T11:18:16.402Z,25.31
2016-08-24T11:23:14.510Z,25.44
2016-08-24T11:28:12.339Z,25.51
2016-08-24T11:33:10.639Z,25.43
2016-08-24T11:38:08.468Z,25.47
2016-08-24T11:43:06.320Z,25.41
2016-08-24T11:48:04.275Z,25.43
2016-08-24T11:53:02.070Z,25.40
2016-08-24T11:57:59.828Z,25.44
2016-08-24T12:02:57.791Z,25.38
2016-08-24T12:07:55.769Z,25.43
2016-08-24T12:12:53.532Z,25.58
2016-08-24T12:17:51.460Z,25.59
2016-08-24T12:22:49.285Z,25.54
2016-08-24T12:27:47.070Z,25.54
2016-08-24T12:32:44.987Z,25.60
2016-08-24T12:52:26.013Z,29.38
2016-08-24T12:57:16.532Z,28.69
2016-08-24T13:02:12.919Z,28.64
2016-08-24T13:07:09.582Z,28.66
2016-08-24T13:12:06.253Z,28.66
2016-08-24T13:17:03.757Z,30.65
2016-08-24T13:22:00.215Z,27.58
2016-08-24T13:26:56.206Z,26.25
2016-08-24T13:31:52.190Z,25.63
2016-08-24T13:36:48.331Z,25.38
2016-08-24T13:41:44.665Z,25.41
2016-08-24T13:46:41.536Z,25.41
2016-08-24T13:51:38.728Z,25.23
2016-08-24T13:56:35.283Z,25.18
2016-08-24T14:01:34.547Z,25.31
2016-08-24T14:06:30.520Z,25.26
2016-08-24T14:11:27.188Z,25.33
2016-08-24T14:16:23.913Z,25.31
2016-08-24T14:21:20.405Z,25.21
2016-08-24T14:26:17.341Z,25.18
2016-08-24T14:31:14.217Z,25.17
2016-08-24T14:36:10.905Z,25.68
2016-08-24T14:41:07.444Z,25.90
2016-08-24T14:46:04.110Z,26.05
2016-08-24T14:51:01.338Z,26.26
2016-08-24T14:55:58.088Z,26.38
2016-08-24T15:00:54.841Z,26.28
2016-08-24T15:05:51.557Z,26.05
2016-08-24T15:10:48.111Z,25.95
2016-08-24T15:15:47.347Z,25.80
2016-08-24T15:20:43.497Z,25.85
2016-08-24T15:25:40.442Z,25.90
2016-08-24T15:30:37.255Z,25.84
2016-08-24T15:35:33.651Z,25.93
2016-08-24T15:40:30.489Z,25.91
2016-08-24T15:45:27.112Z,25.78
2016-08-24T15:50:24.359Z,25.78
2016-08-24T15:55:21.084Z,25.65
2016-08-24T16:00:19.258Z,25.63
2016-08-24T16:05:15.602Z,25.65
2016-08-24T16:10:12.191Z,25.59
2016-08-24T16:15:08.813Z,25.59
2016-08-24T16:20:05.695Z,25.63
2016-08-24T16:25:02.400Z,25.70
2016-08-24T16:29:58.905Z,25.66
2016-08-24T16:34:55.671Z,25.59
2016-08-24T16:39:52.873Z,25.55
2016-08-24T16:44:49.460Z,25.54
2016-08-24T16:49:46.100Z,25.53
2016-08-24T16:54:42.615Z,25.48
2016-08-24T16:59:39.643Z,25.43
2016-08-24T17:04:36.667Z,25.47
2016-08-24T17:09:33.307Z,25.44
2016-08-24T17:14:29.924Z,25.40
2016-08-24T17:19:26.561Z,25.40
2016-08-24T17:24:23.127Z,25.35
2016-08-24T17:29:20.150Z,25.38
2016-08-24T17:34:17.208Z,25.31
2016-08-24T17:39:13.882Z,25.32
2016-08-24T17:44:10.477Z,25.32
2016-08-24T17:49:07.813Z,25.28
2016-08-24T17:54:04.461Z,25.29
2016-08-24T17:59:01.089Z,25.17
2016-08-24T18:03:57.657Z,25.13
2016-08-24T18:08:54.994Z,25.08
2016-08-24T18:13:51.583Z,25.07
2016-08-24T18:18:48.288Z,25.08
2016-08-24T18:23:44.955Z,25.01
2016-08-24T18:28:41.633Z,24.95
2016-08-24T18:33:38.257Z,25.01
2016-08-24T18:38:37.542Z,24.93
2016-08-24T18:43:33.669Z,24.98
2016-08-24T18:48:30.431Z,24.93
2016-08-24T18:53:27.087Z,24.89
2016-08-24T18:58:23.700Z,25.06
2016-08-24T19:03:20.650Z,25.03
2016-08-24T19:08:17.253Z,24.98
2016-08-24T19:13:14.363Z,25.06
2016-08-24T19:18:11.359Z,25.04
2016-08-24T19:23:08.229Z,25.03
2016-08-24T19:28:04.938Z,24.99
2016-08-24T19:33:01.495Z,25.04
2016-08-24T19:37:58.231Z,24.99
2016-08-24T19:42:54.783Z,24.89
2016-08-24T19:47:51.440Z,24.85
2016-08-24T19:52:48.080Z,24.74
2016-08-24T19:57:44.823Z,24.88
2016-08-24T20:02:43.881Z,24.89
2016-08-24T20:07:39.928Z,24.85
2016-08-24T20:12:36.638Z,24.84
2016-08-24T20:17:33.254Z,24.84
2016-08-24T20:22:30.399Z,24.80
2016-08-24T20:27:26.949Z,24.80
2016-08-24T20:32:23.737Z,24.80
2016-08-24T20:37:20.753Z,24.78
2016-08-24T20:42:17.579Z,24.78
2016-08-24T20:47:15.712Z,24.76
2016-08-24T20:52:12.180Z,24.68
2016-08-24T20:57:09.836Z,24.70
2016-08-24T21:02:06.258Z,24.69
2016-08-24T21:07:03.018Z,24.68
2016-08-24T21:11:59.537Z,24.65
2016-08-24T21:16:56.308Z,24.63
2016-08-24T21:21:53.241Z,24.65
2016-08-24T21:26:49.898Z,24.58
2016-08-24T21:31:46.999Z,24.65
2016-08-24T21:36:44.146Z,24.60
2016-08-24T21:41:40.683Z,24.57
2016-08-24T21:46:37.333Z,24.57
2016-08-24T21:51:34.276Z,24.48
2016-08-24T21:56:30.860Z,24.48
2016-08-24T22:01:27.333Z,24.42
2016-08-24T22:06:24.390Z,24.32
2016-08-24T22:11:22.374Z,24.26
2016-08-24T22:16:18.446Z,24.29
2016-08-24T22:21:15.143Z,24.28
2016-08-24T22:26:13.220Z,24.20
2016-08-24T22:31:09.574Z,24.24
2016-08-24T22:36:06.191Z,24.10
2016-08-24T22:41:02.829Z,24.10
2016-08-24T22:45:59.533Z,24.05
2016-08-24T22:50:56.275Z,23.95
2016-08-24T22:55:52.806Z,23.92
2016-08-24T23:00:49.964Z,23.91
2016-08-24T23:05:46.713Z,23.99
2016-08-24T23:10:43.703Z,23.96
2016-08-24T23:15:40.322Z,23.92
2016-08-24T23:20:37.184Z,23.84
2016-08-24T23:25:34.233Z,23.93
2016-08-24T23:30:30.773Z,23.81
2016-08-24T23:35:27.366Z,23.80
2016-08-24T23:40:24.095Z,23.80
2016-08-24T23:45:21.045Z,23.76
2016-08-24T23:50:17.712Z,23.74
2016-08-24T23:55:14.284Z,23.74
